createdAt,value
2023-02-08T00:00:50.946Z,-4.45
2023-02-08T00:03:18.436Z,-4.24
2023-02-08T00:05:45.637Z,-4.07
2023-02-08T00:08:12.739Z,-4.35
2023-02-08T00:10:39.986Z,-4.06
2023-02-08T00:13:07.235Z,-3.97
2023-02-08T00:15:34.230Z,-4.44
2023-02-08T00:18:01.284Z,-4.06
2023-02-08T00:20:29.371Z,-3.92
2023-02-08T00:22:56.701Z,-4.06
2023-02-08T00:25:23.698Z,-4.05
2023-02-08T00:27:50.788Z,-3.92
2023-02-08T00:30:17.883Z,-4.00
2023-02-08T00:32:44.908Z,-4.01
2023-02-08T00:35:12.253Z,-3.95
2023-02-08T00:37:39.362Z,-4.11
2023-02-08T00:40:06.791Z,-4.10
2023-02-08T00:42:33.833Z,-3.96
2023-02-08T00:45:00.886Z,-4.05
2023-02-08T00:47:27.953Z,-4.02
2023-02-08T00:49:55.018Z,-3.97
2023-02-08T00:52:22.264Z,-3.99
2023-02-08T00:54:49.254Z,-4.09
2023-02-08T00:57:16.287Z,-4.09
2023-02-08T00:59:43.313Z,-4.09
2023-02-08T01:02:10.734Z,-4.28
2023-02-08T01:04:38.241Z,-4.02
2023-02-08T01:07:07.035Z,-4.04
2023-02-08T01:09:34.477Z,-4.08
2023-02-08T01:12:01.733Z,-4.03
2023-02-08T01:14:28.780Z,-4.49
2023-02-08T01:16:56.060Z,-4.07
2023-02-08T01:19:23.823Z,-4.13
2023-02-08T01:21:50.892Z,-4.26
2023-02-08T01:24:18.340Z,-4.23
2023-02-08T01:26:45.459Z,-4.22
2023-02-08T01:29:12.608Z,-4.24
2023-02-08T01:31:42.223Z,-4.33
2023-02-08T01:34:10.823Z,-4.19
2023-02-08T01:36:38.779Z,-4.18
2023-02-08T01:39:10.418Z,-4.16
2023-02-08T01:41:40.998Z,-4.17
2023-02-08T01:44:14.003Z,-4.19
2023-02-08T01:46:46.038Z,-4.32
2023-02-08T01:49:20.299Z,-4.23
2023-02-08T01:52:10.375Z,-4.39
2023-02-08T01:54:43.816Z,-4.12
2023-02-08T01:57:11.265Z,-4.14
2023-02-08T01:59:47.596Z,-4.18
2023-02-08T02:02:17.775Z,-4.20
2023-02-08T02:04:45.587Z,-4.20
2023-02-08T02:07:13.787Z,-4.16
2023-02-08T02:09:44.908Z,-4.18
2023-02-08T02:12:14.161Z,-4.32
2023-02-08T02:14:42.796Z,-4.24
2023-02-08T02:17:12.065Z,-4.42
2023-02-08T02:20:02.995Z,-4.27
2023-02-08T02:22:55.344Z,-4.31
2023-02-08T02:26:03.701Z,-4.65
2023-02-08T02:28:38.144Z,-4.34
2023-02-08T02:31:36.923Z,-4.11
2023-02-08T02:34:08.657Z,-4.13
2023-02-08T02:36:38.274Z,-4.16
2023-02-08T02:39:36.118Z,-4.08
2023-02-08T02:43:08.771Z,-4.16
2023-02-08T02:45:45.566Z,-4.14
2023-02-08T02:48:32.072Z,-4.12
2023-02-08T02:51:46.475Z,-4.16
2023-02-08T02:54:19.399Z,-4.11
2023-02-08T02:56:51.113Z,-4.22
2023-02-08T02:59:19.963Z,-4.14
2023-02-08T03:01:47.821Z,-4.16
2023-02-08T03:04:33.006Z,-4.10
2023-02-08T03:07:18.219Z,-4.17
2023-02-08T03:10:03.690Z,-4.22
2023-02-08T03:12:42.171Z,-4.65
2023-02-08T03:15:27.548Z,-4.09
2023-02-08T03:18:39.103Z,-4.06
2023-02-08T03:21:18.957Z,-4.01
2023-02-08T03:24:04.336Z,-4.01
2023-02-08T03:26:59.392Z,-3.98
2023-02-08T03:29:26.447Z,-3.97
2023-02-08T03:32:19.201Z,-3.99
2023-02-08T03:34:58.275Z,-3.97
2023-02-08T03:37:31.134Z,-4.00
2023-02-08T03:40:23.244Z,-3.92
2023-02-08T03:42:53.199Z,-4.01
2023-02-08T03:45:24.166Z,-3.91
2023-02-08T03:47:55.017Z,-3.99
2023-02-08T03:50:23.807Z,-3.86
2023-02-08T03:52:52.455Z,-3.80
2023-02-08T03:55:24.970Z,-4.50
2023-02-08T03:58:18.336Z,-3.86
2023-02-08T04:00:55.226Z,-3.83
2023-02-08T04:03:28.745Z,-3.73
2023-02-08T04:05:55.988Z,-3.70
2023-02-08T04:08:23.206Z,-3.69
2023-02-08T04:10:50.339Z,-3.70
2023-02-08T04:13:17.426Z,-3.97
2023-02-08T04:15:44.980Z,-3.82
2023-02-08T04:18:12.041Z,-3.87
2023-02-08T04:20:39.532Z,-3.88
2023-02-08T04:23:06.696Z,-3.69
2023-02-08T04:25:33.715Z,-3.68
2023-02-08T04:28:00.974Z,-3.60
2023-02-08T04:30:28.031Z,-3.60
2023-02-08T04:32:55.143Z,-3.56
2023-02-08T04:35:22.166Z,-4.52
2023-02-08T04:37:49.215Z,-3.72
2023-02-08T04:40:16.414Z,-3.68
2023-02-08T04:42:43.492Z,-3.72
2023-02-08T04:45:10.587Z,-3.60
2023-02-08T04:47:37.596Z,-3.51
2023-02-08T04:50:05.013Z,-3.57
2023-02-08T04:52:32.512Z,-3.55
2023-02-08T04:54:59.626Z,-3.64
2023-02-08T04:57:29.101Z,-3.52
2023-02-08T04:59:56.123Z,-3.50
2023-02-08T05:02:23.244Z,-3.55
2023-02-08T05:04:50.280Z,-3.53
2023-02-08T05:07:17.336Z,-3.56
2023-02-08T05:09:44.363Z,-3.44
2023-02-08T05:12:11.879Z,-3.39
2023-02-08T05:14:38.891Z,-3.32
2023-02-08T05:17:05.952Z,-3.51
2023-02-08T05:19:32.971Z,-3.50
2023-02-08T05:21:59.934Z,-3.43
2023-02-08T05:24:26.921Z,-3.38
2023-02-08T05:26:53.985Z,-3.70
2023-02-08T05:29:21.114Z,-3.42
2023-02-08T05:31:48.222Z,-3.34
2023-02-08T05:34:15.348Z,-3.23
2023-02-08T05:36:42.355Z,-3.20
2023-02-08T05:39:09.364Z,-3.25
2023-02-08T05:41:36.450Z,-3.26
2023-02-08T05:44:03.462Z,-3.36
2023-02-08T05:46:30.613Z,-3.48
2023-02-08T05:48:57.900Z,-3.16
2023-02-08T05:51:24.897Z,-3.09
2023-02-08T05:53:51.968Z,-3.35
2023-02-08T05:56:18.963Z,-3.06
2023-02-08T05:58:45.935Z,-3.02
2023-02-08T06:01:13.952Z,-3.15
2023-02-08T06:03:41.390Z,-3.16
2023-02-08T06:06:11.391Z,-3.09
2023-02-08T06:08:39.345Z,-3.08
2023-02-08T06:11:07.178Z,-3.10
2023-02-08T06:13:34.288Z,-3.05
2023-02-08T06:16:01.427Z,-3.10
2023-02-08T06:18:28.876Z,-3.06
2023-02-08T06:20:55.946Z,-3.00
2023-02-08T06:23:24.185Z,-3.02
2023-02-08T06:25:51.281Z,-3.16
2023-02-08T06:28:18.386Z,-3.03
2023-02-08T06:30:45.485Z,-3.03
2023-02-08T06:33:15.190Z,-3.01
2023-02-08T06:35:52.310Z,-3.37
2023-02-08T06:38:19.782Z,-3.07
2023-02-08T06:40:48.210Z,-3.02
2023-02-08T06:43:16.036Z,-2.93
2023-02-08T06:45:47.965Z,-3.05
2023-02-08T06:48:15.780Z,-2.91
2023-02-08T06:50:43.276Z,-3.04
2023-02-08T06:53:10.433Z,-2.86
2023-02-08T06:55:37.462Z,-2.83
2023-02-08T06:58:04.583Z,-2.79
2023-02-08T07:00:31.628Z,-2.73
2023-02-08T07:02:59.054Z,-2.71
2023-02-08T07:05:26.110Z,-2.66
2023-02-08T07:07:53.739Z,-2.63
2023-02-08T07:10:20.798Z,-2.66
2023-02-08T07:12:47.979Z,-2.57
2023-02-08T07:15:15.430Z,-2.53
2023-02-08T07:17:42.409Z,-2.49
2023-02-08T07:20:11.621Z,-2.54
2023-02-08T07:22:39.682Z,-2.60
2023-02-08T07:25:08.475Z,-2.50
2023-02-08T07:27:36.057Z,-2.42
2023-02-08T07:30:03.566Z,-2.54
2023-02-08T07:32:33.176Z,-2.33
2023-02-08T07:35:02.213Z,-2.32
2023-02-08T07:37:31.891Z,-2.60
2023-02-08T07:39:59.141Z,-2.34
2023-02-08T07:42:26.171Z,-2.34
2023-02-08T07:45:05.772Z,-2.27
2023-02-08T07:47:32.832Z,-2.17
2023-02-08T07:49:59.982Z,-2.14
2023-02-08T07:52:27.059Z,-2.21
2023-02-08T07:54:54.133Z,-2.31
2023-02-08T07:57:22.261Z,-2.08
2023-02-08T07:59:49.334Z,-2.02
2023-02-08T08:02:16.600Z,-2.13
2023-02-08T08:04:43.648Z,-1.95
2023-02-08T08:07:10.901Z,-1.93
2023-02-08T08:09:38.271Z,-1.91
2023-02-08T08:12:05.523Z,-1.88
2023-02-08T08:14:32.564Z,-1.90
2023-02-08T08:16:59.620Z,-1.89
2023-02-08T08:19:26.901Z,-1.91
2023-02-08T08:21:54.039Z,-1.84
2023-02-08T08:24:21.099Z,-1.89
2023-02-08T08:26:48.105Z,-2.02
2023-02-08T08:29:15.228Z,-1.92
2023-02-08T08:31:43.472Z,-1.84
2023-02-08T08:34:10.978Z,-1.77
2023-02-08T08:36:38.018Z,-1.70
2023-02-08T08:39:05.340Z,-1.83
2023-02-08T08:41:32.514Z,-1.79
2023-02-08T08:43:59.514Z,-1.74
2023-02-08T08:46:26.645Z,-1.87
2023-02-08T08:48:53.749Z,-1.81
2023-02-08T08:51:20.767Z,-1.62
2023-02-08T08:53:47.772Z,-1.63
2023-02-08T08:56:14.801Z,-1.51
2023-02-08T08:58:43.639Z,-1.44
2023-02-08T09:01:10.938Z,-1.46
2023-02-08T09:03:37.970Z,-1.22
2023-02-08T09:06:05.106Z,-1.12
2023-02-08T09:08:32.121Z,-1.35
2023-02-08T09:11:08.786Z,-0.88
2023-02-08T09:13:36.310Z,-0.87
2023-02-08T09:16:11.301Z,-0.96
2023-02-08T09:18:38.565Z,-0.63
2023-02-08T09:21:16.876Z,-0.58
2023-02-08T09:23:44.603Z,-0.55
2023-02-08T09:26:13.266Z,-0.57
2023-02-08T09:28:40.513Z,-0.56
2023-02-08T09:31:20.451Z,-0.62
2023-02-08T09:33:48.384Z,-0.79
2023-02-08T09:36:16.236Z,-0.82
2023-02-08T09:38:44.027Z,-0.93
2023-02-08T09:41:38.972Z,-0.71
2023-02-08T09:44:24.096Z,-1.23
2023-02-08T09:47:10.781Z,-0.84
2023-02-08T09:49:43.555Z,-0.96
2023-02-08T09:52:16.359Z,-1.05
2023-02-08T09:54:49.113Z,-1.03
2023-02-08T09:57:24.480Z,-1.04
2023-02-08T09:59:57.291Z,-1.00
2023-02-08T10:02:29.020Z,-0.92
2023-02-08T10:05:01.598Z,-0.88
2023-02-08T10:07:29.781Z,-0.68
2023-02-08T10:10:04.990Z,-0.49
2023-02-08T10:12:54.200Z,-0.29
2023-02-08T10:15:39.970Z,-0.21
2023-02-08T10:18:53.402Z,0.20
2023-02-08T10:21:30.605Z,0.30
2023-02-08T10:24:26.702Z,0.49
2023-02-08T10:27:16.247Z,0.77
2023-02-08T10:30:13.261Z,0.97
2023-02-08T10:32:45.462Z,1.14
2023-02-08T10:35:39.226Z,1.21
2023-02-08T10:38:21.277Z,1.30
2023-02-08T10:40:52.557Z,1.04
2023-02-08T10:43:37.811Z,0.76
2023-02-08T10:46:30.907Z,0.63
2023-02-08T10:49:35.452Z,0.62
2023-02-08T10:52:02.913Z,0.48
2023-02-08T10:54:30.080Z,0.47
2023-02-08T10:57:04.586Z,0.21
2023-02-08T10:59:35.812Z,0.32
2023-02-08T11:02:03.209Z,0.18
2023-02-08T11:04:30.305Z,0.16
2023-02-08T11:06:58.441Z,0.21
2023-02-08T11:09:29.246Z,-0.06
2023-02-08T11:11:59.185Z,0.17
2023-02-08T11:14:46.667Z,0.22
2023-02-08T11:17:28.976Z,0.24
2023-02-08T11:19:56.710Z,0.22
2023-02-08T11:22:26.580Z,0.11
2023-02-08T11:25:07.171Z,0.16
2023-02-08T11:27:36.463Z,0.15
2023-02-08T11:30:18.405Z,0.23
2023-02-08T11:32:47.588Z,0.22
2023-02-08T11:35:24.870Z,0.23
2023-02-08T11:37:58.169Z,0.34
2023-02-08T11:40:30.172Z,0.51
2023-02-08T11:42:58.272Z,0.54
2023-02-08T11:45:31.145Z,0.47
2023-02-08T11:47:59.812Z,0.40
2023-02-08T11:50:26.913Z,0.35
2023-02-08T11:53:05.052Z,0.42
2023-02-08T11:55:34.935Z,0.39
2023-02-08T11:58:03.861Z,0.42
2023-02-08T12:00:35.784Z,0.35
2023-02-08T12:03:07.460Z,0.23
2023-02-08T12:05:49.341Z,0.23
2023-02-08T12:08:28.618Z,0.12
2023-02-08T12:10:55.581Z,0.28
2023-02-08T12:13:29.293Z,0.30
2023-02-08T12:16:12.361Z,0.38
2023-02-08T12:18:54.910Z,0.51
2023-02-08T12:21:42.627Z,0.25
2023-02-08T12:24:29.698Z,0.77
2023-02-08T12:27:18.482Z,0.48
2023-02-08T12:30:20.459Z,0.69
2023-02-08T12:33:18.275Z,0.65
2023-02-08T12:36:03.529Z,0.57
2023-02-08T12:39:18.405Z,0.66
2023-02-08T12:42:11.057Z,0.61
2023-02-08T12:44:53.068Z,0.53
2023-02-08T12:47:25.634Z,0.57
2023-02-08T12:50:15.692Z,0.46
2023-02-08T12:52:48.552Z,0.37
2023-02-08T12:55:18.788Z,0.30
2023-02-08T12:57:50.551Z,0.28
2023-02-08T13:00:25.276Z,0.23
2023-02-08T13:02:57.753Z,0.25
2023-02-08T13:05:32.437Z,0.32
2023-02-08T13:08:17.353Z,0.37
2023-02-08T13:10:50.528Z,0.35
2023-02-08T13:13:24.350Z,0.33
2023-02-08T13:16:06.336Z,0.08
2023-02-08T13:18:40.348Z,-0.54
2023-02-08T13:21:25.922Z,0.19
2023-02-08T13:23:53.592Z,0.06
2023-02-08T13:26:31.818Z,0.09
2023-02-08T13:29:02.561Z,0.08
2023-02-08T13:31:36.221Z,-0.17
2023-02-08T13:34:12.324Z,-0.10
2023-02-08T13:36:51.907Z,-0.09
2023-02-08T13:39:36.283Z,-0.49
2023-02-08T13:42:06.954Z,-0.16
2023-02-08T13:44:40.458Z,-0.20
2023-02-08T13:47:22.359Z,-0.18
2023-02-08T13:49:55.877Z,-0.25
2023-02-08T13:52:47.439Z,-0.18
2023-02-08T13:55:38.276Z,-0.25
2023-02-08T13:58:43.740Z,-0.35
2023-02-08T14:01:21.768Z,-0.47
2023-02-08T14:04:07.380Z,-0.44
2023-02-08T14:06:57.015Z,-0.48
2023-02-08T14:09:44.315Z,-1.46
2023-02-08T14:12:20.335Z,-0.72
2023-02-08T14:15:25.474Z,-0.60
2023-02-08T14:17:58.169Z,-0.66
2023-02-08T14:20:42.608Z,-0.76
2023-02-08T14:23:27.967Z,-1.15
2023-02-08T14:25:57.042Z,-0.64
2023-02-08T14:28:38.581Z,-0.83
2023-02-08T14:31:10.300Z,-0.65
2023-02-08T14:33:52.994Z,-0.70
2023-02-08T14:36:41.359Z,-0.63
2023-02-08T14:39:24.802Z,-0.63
2023-02-08T14:42:03.977Z,-0.68
2023-02-08T14:44:41.746Z,-0.66
2023-02-08T14:47:27.064Z,-0.68
2023-02-08T14:50:16.029Z,-0.70
2023-02-08T14:52:54.346Z,-0.66
2023-02-08T14:55:27.797Z,-0.53
2023-02-08T14:58:00.906Z,-0.60
2023-02-08T15:00:35.835Z,-0.56
2023-02-08T15:03:12.157Z,-0.62
2023-02-08T15:05:48.821Z,-0.61
2023-02-08T15:08:21.221Z,-0.71
2023-02-08T15:10:48.353Z,-0.58
2023-02-08T15:13:22.206Z,-0.58
2023-02-08T15:15:54.616Z,-0.59
2023-02-08T15:18:39.821Z,-0.57
2023-02-08T15:21:15.614Z,-0.61
2023-02-08T15:23:42.740Z,-0.65
2023-02-08T15:26:23.816Z,-0.54
2023-02-08T15:28:50.875Z,-0.57
2023-02-08T15:31:26.709Z,-0.70
2023-02-08T15:33:54.565Z,-0.70
2023-02-08T15:36:26.130Z,-0.69
2023-02-08T15:38:55.517Z,-0.64
2023-02-08T15:41:32.027Z,-0.72
2023-02-08T15:44:08.331Z,-0.57
2023-02-08T15:46:36.220Z,-0.60
2023-02-08T15:49:03.427Z,-0.62
2023-02-08T15:51:30.670Z,-0.63
2023-02-08T15:53:57.986Z,-0.60
2023-02-08T15:56:39.343Z,-0.70
2023-02-08T15:59:19.870Z,-0.63
2023-02-08T16:01:48.230Z,-0.62
2023-02-08T16:04:16.111Z,-0.59
2023-02-08T16:06:56.516Z,-0.89
2023-02-08T16:09:28.192Z,-0.64
2023-02-08T16:11:59.581Z,-0.74
2023-02-08T16:14:29.508Z,-0.65
2023-02-08T16:16:58.423Z,-0.74
2023-02-08T16:19:27.260Z,-0.69
2023-02-08T16:21:57.252Z,-0.65
2023-02-08T16:24:27.773Z,-0.70
2023-02-08T16:27:06.102Z,-0.62
2023-02-08T16:29:42.421Z,-0.62
2023-02-08T16:32:45.723Z,-0.73
2023-02-08T16:35:24.717Z,-0.59
2023-02-08T16:38:00.868Z,-0.60
2023-02-08T16:40:59.216Z,-0.54
2023-02-08T16:43:27.201Z,-0.57
2023-02-08T16:46:21.537Z,-0.61
2023-02-08T16:48:54.753Z,-0.99
2023-02-08T16:51:31.901Z,-0.55
2023-02-08T16:54:07.580Z,-0.51
2023-02-08T16:56:36.213Z,-0.57
2023-02-08T16:59:03.518Z,-0.49
2023-02-08T17:01:30.997Z,-0.60
2023-02-08T17:03:58.188Z,-0.52
2023-02-08T17:06:36.869Z,-0.50
2023-02-08T17:09:06.530Z,-0.54
2023-02-08T17:11:33.969Z,-0.69
2023-02-08T17:14:01.043Z,-0.51
2023-02-08T17:16:30.936Z,-0.49
2023-02-08T17:18:59.124Z,-0.51
2023-02-08T17:21:27.589Z,-0.48
2023-02-08T17:23:55.021Z,-0.53
2023-02-08T17:26:27.587Z,-0.47
2023-02-08T17:28:59.334Z,-0.47
2023-02-08T17:31:29.293Z,-0.54
2023-02-08T17:34:04.249Z,-0.55
2023-02-08T17:36:36.705Z,-0.56
2023-02-08T17:39:05.858Z,-0.52
2023-02-08T17:41:35.575Z,-0.54
2023-02-08T17:44:02.762Z,-0.54
2023-02-08T17:46:33.104Z,-0.56
2023-02-08T17:49:01.868Z,-0.64
2023-02-08T17:51:29.894Z,-0.53
2023-02-08T17:53:57.017Z,-0.53
2023-02-08T17:56:27.570Z,-0.62
2023-02-08T17:58:55.510Z,-0.53
2023-02-08T18:01:25.542Z,-0.58
2023-02-08T18:03:53.431Z,-0.66
2023-02-08T18:06:23.976Z,-0.60
2023-02-08T18:08:55.076Z,-0.75
2023-02-08T18:11:23.581Z,-0.60
2023-02-08T18:13:52.784Z,-0.59
2023-02-08T18:16:25.178Z,-0.63
2023-02-08T18:18:56.196Z,-0.59
2023-02-08T18:21:27.245Z,-0.65
2023-02-08T18:23:55.586Z,-0.74
2023-02-08T18:26:25.082Z,-0.59
2023-02-08T18:28:52.544Z,-0.65
2023-02-08T18:31:21.397Z,-0.60
2023-02-08T18:33:49.979Z,-0.54
2023-02-08T18:36:18.407Z,-0.52
2023-02-08T18:38:47.334Z,-0.52
2023-02-08T18:41:21.418Z,-0.60
2023-02-08T18:43:49.400Z,-0.54
2023-02-08T18:46:18.954Z,-0.50
2023-02-08T18:48:47.030Z,-0.47
2023-02-08T18:51:19.671Z,-0.43
2023-02-08T18:53:48.878Z,-0.58
2023-02-08T18:56:16.032Z,-0.44
2023-02-08T18:58:43.229Z,-0.40
2023-02-08T19:01:16.669Z,-0.39
2023-02-08T19:03:45.018Z,-0.53
2023-02-08T19:06:16.451Z,-0.72
2023-02-08T19:08:45.053Z,-0.35
2023-02-08T19:11:21.443Z,-0.33
2023-02-08T19:13:48.869Z,-0.31
2023-02-08T19:16:17.622Z,-0.30
2023-02-08T19:18:46.051Z,-0.39
2023-02-08T19:21:15.581Z,-0.43
2023-02-08T19:23:42.792Z,-0.44
2023-02-08T19:26:17.125Z,-0.47
2023-02-08T19:28:44.163Z,-0.87
2023-02-08T19:31:14.443Z,-0.51
2023-02-08T19:33:47.035Z,-0.57
2023-02-08T19:36:19.379Z,-0.63
2023-02-08T19:38:47.908Z,-0.60
2023-02-08T19:41:17.927Z,-0.62
2023-02-08T19:43:45.782Z,-0.63
2023-02-08T19:46:16.188Z,-0.68
2023-02-08T19:48:44.299Z,-0.67
2023-02-08T19:51:11.352Z,-0.64
2023-02-08T19:53:38.437Z,-0.62
2023-02-08T19:56:08.412Z,-0.57
2023-02-08T19:58:37.069Z,-0.62
2023-02-08T20:01:08.346Z,-0.60
2023-02-08T20:03:35.795Z,-0.56
2023-02-08T20:06:04.114Z,-0.54
2023-02-08T20:08:31.677Z,-0.70
2023-02-08T20:10:58.814Z,-0.76
2023-02-08T20:13:25.870Z,-0.61
2023-02-08T20:15:59.829Z,-0.62
2023-02-08T20:18:27.029Z,-0.59
2023-02-08T20:21:01.894Z,-0.59
2023-02-08T20:23:29.292Z,-0.68
2023-02-08T20:26:15.395Z,-0.51
2023-02-08T20:28:45.022Z,-0.51
2023-02-08T20:31:15.370Z,-0.67
2023-02-08T20:33:43.332Z,-0.58
2023-02-08T20:36:13.550Z,-0.42
2023-02-08T20:38:40.755Z,-0.47
2023-02-08T20:41:10.930Z,-0.49
2023-02-08T20:43:38.127Z,-0.50
2023-02-08T20:46:07.079Z,-0.49
2023-02-08T20:48:34.619Z,-0.60
2023-02-08T20:51:22.954Z,-0.47
2023-02-08T20:53:50.715Z,-0.46
2023-02-08T20:56:26.208Z,-0.48
2023-02-08T20:58:56.579Z,-0.44
2023-02-08T21:01:25.857Z,-0.43
2023-02-08T21:03:55.019Z,-0.52
2023-02-08T21:06:26.602Z,-0.31
2023-02-08T21:08:55.494Z,-0.23
2023-02-08T21:11:26.311Z,-0.29
2023-02-08T21:13:53.645Z,-0.36
2023-02-08T21:16:20.744Z,-0.42
2023-02-08T21:18:48.272Z,-0.51
2023-02-08T21:21:15.534Z,-0.42
2023-02-08T21:23:43.430Z,-0.31
2023-02-08T21:26:13.528Z,-0.28
2023-02-08T21:28:40.881Z,-0.26
2023-02-08T21:31:12.306Z,-0.31
2023-02-08T21:33:39.344Z,-0.24
2023-02-08T21:36:10.557Z,-0.21
2023-02-08T21:38:38.001Z,-0.35
2023-02-08T21:41:20.335Z,-0.21
2023-02-08T21:43:48.714Z,-0.45
2023-02-08T21:46:16.847Z,-0.25
2023-02-08T21:49:02.263Z,-0.38
2023-02-08T21:51:48.285Z,-0.29
2023-02-08T21:54:36.808Z,-0.44
2023-02-08T21:57:06.307Z,-0.26
2023-02-08T21:59:37.701Z,-0.37
2023-02-08T22:02:06.790Z,-0.28
2023-02-08T22:04:34.883Z,-0.26
2023-02-08T22:07:04.730Z,-0.26
2023-02-08T22:09:31.940Z,-0.42
2023-02-08T22:11:59.153Z,-0.28
2023-02-08T22:14:26.423Z,-0.31
2023-02-08T22:16:53.461Z,-0.29
2023-02-08T22:19:20.468Z,-0.32
2023-02-08T22:21:47.471Z,-0.28
2023-02-08T22:24:14.501Z,-0.29
2023-02-08T22:26:41.551Z,-0.31
2023-02-08T22:29:08.548Z,-0.43
2023-02-08T22:31:35.624Z,-0.26
2023-02-08T22:34:02.756Z,-0.33
2023-02-08T22:36:29.853Z,-0.20
2023-02-08T22:38:57.005Z,-0.20
2023-02-08T22:41:24.209Z,-0.19
2023-02-08T22:43:51.283Z,-0.21
2023-02-08T22:46:18.341Z,-0.24
2023-02-08T22:48:45.372Z,-1.02
2023-02-08T22:51:18.157Z,-0.16
2023-02-08T22:53:45.453Z,-0.24
2023-02-08T22:56:16.260Z,-0.50
2023-02-08T22:58:43.397Z,-0.21
2023-02-08T23:01:11.910Z,-0.07
2023-02-08T23:03:39.305Z,-0.06
2023-02-08T23:06:08.622Z,-0.04
2023-02-08T23:08:36.409Z,-0.06
2023-02-08T23:11:05.624Z,-0.08
2023-02-08T23:13:34.237Z,-0.05
2023-02-08T23:16:01.474Z,-0.07
2023-02-08T23:18:28.799Z,-0.08
2023-02-08T23:20:56.114Z,-0.04
2023-02-08T23:23:23.394Z,-0.08
2023-02-08T23:25:50.419Z,-0.06
2023-02-08T23:28:17.442Z,-0.01
2023-02-08T23:30:44.977Z,-0.04
2023-02-08T23:33:12.291Z,-0.19
2023-02-08T23:35:41.398Z,-0.11
2023-02-08T23:38:09.341Z,-0.10
2023-02-08T23:40:36.750Z,-0.10
2023-02-08T23:43:03.933Z,-0.07
2023-02-08T23:45:31.452Z,-0.11
2023-02-08T23:47:58.840Z,-0.41
2023-02-08T23:50:26.558Z,-0.27
2023-02-08T23:52:56.655Z,-0.17
2023-02-08T23:55:24.186Z,-0.13
2023-02-08T23:57:51.225Z,-0.11
